Time;durP1;ratioP1;P1;durP2;ratioP2;P2;SDS_P1;SDS_P2;PMS_P1;PMS_P2;Temp;Humidity;BMP_temperature;BMP_pressure;BME280_temperature;BME280_humidity;BME280_pressure;Samples;Min_cycle;Max_cycle;Signal;HPM_P1;HPM_P2
2020/12/07 00:02:22;;;;;;;41.10;21.60;;;;;;;2.61;94.65;99984.88;5095731;28;20273;-76
2020/12/07 00:04:47;;;;;;;46.30;24.33;;;;;;;2.61;94.81;99984.88;5111129;28;20738;-75
2020/12/07 00:07:13;;;;;;;43.92;23.05;;;;;;;2.61;94.96;99978.16;5110569;28;20111;-77
2020/12/07 00:09:38;;;;;;;39.30;22.85;;;;;;;2.66;94.91;99971.59;5111902;27;20024;-76
2020/12/07 00:12:03;;;;;;;37.57;21.43;;;;;;;2.63;94.94;99968.06;5108720;27;20032;-77
2020/12/07 00:14:29;;;;;;;46.92;22.13;;;;;;;2.62;94.87;99966.34;5106427;28;20016;-76
2020/12/07 00:16:54;;;;;;;42.72;21.90;;;;;;;2.61;94.79;99965.47;5112059;28;20020;-76
2020/12/07 00:19:19;;;;;;;37.90;21.33;;;;;;;2.60;94.96;99966.28;5096578;28;20027;-76
2020/12/07 00:21:44;;;;;;;41.67;22.80;;;;;;;2.63;95.10;99968.06;5094320;28;20081;-76
2020/12/07 00:24:11;;;;;;;37.30;20.60;;;;;;;2.63;94.96;99966.41;5103101;28;20016;-77
2020/12/07 00:26:37;;;;;;;36.15;21.17;;;;;;;2.67;94.96;99957.25;5101902;28;20285;-77
2020/12/07 00:29:03;;;;;;;34.83;20.55;;;;;;;2.69;95.32;99948.03;5100934;28;20497;-76
2020/12/07 00:31:28;;;;;;;36.15;19.40;;;;;;;2.67;95.10;99934.41;5093623;28;20028;-76
2020/12/07 00:33:59;;;;;;;34.72;20.48;;;;;;;2.63;94.86;99922.44;5111971;28;20042;-75
2020/12/07 00:36:25;;;;;;;33.33;18.30;;;;;;;2.62;94.90;99918.16;5108304;28;20020;-77
2020/12/07 00:38:51;;;;;;;33.78;20.13;;;;;;;2.65;94.79;99915.75;5105869;28;20055;-76
2020/12/07 00:41:24;;;;;;;33.97;19.15;;;;;;;2.59;95.05;99907.88;5108177;28;20050;-75
2020/12/07 00:43:50;;;;;;;39.03;19.63;;;;;;;2.60;94.87;99907.06;5093409;28;20027;-75
2020/12/07 00:46:16;;;;;;;35.50;19.92;;;;;;;2.62;94.91;99892.81;5103295;28;20024;-75
2020/12/07 00:48:41;;;;;;;37.50;20.25;;;;;;;2.68;95.03;99896.44;5095274;28;20031;-75
2020/12/07 00:51:06;;;;;;;37.73;20.07;;;;;;;2.70;95.09;99883.84;5110851;28;20072;-76
2020/12/07 00:53:32;;;;;;;36.55;21.45;;;;;;;2.79;95.00;99886.72;5107536;27;20516;-73
2020/12/07 00:55:57;;;;;;;35.90;19.58;;;;;;;2.83;95.30;99892.78;5104830;28;20459;-76
2020/12/07 00:58:23;;;;;;;36.13;20.33;;;;;;;2.87;95.21;99885.34;5104570;28;20026;-75
2020/12/07 01:00:48;;;;;;;38.17;20.53;;;;;;;2.92;95.18;99888.03;5110079;28;20019;-76
2020/12/07 01:03:13;;;;;;;37.47;20.27;;;;;;;2.92;94.89;99878.75;5098394;28;20427;-75
2020/12/07 01:05:38;;;;;;;34.60;18.80;;;;;;;2.93;95.14;99884.75;5091325;28;20020;-76
2020/12/07 01:08:04;;;;;;;40.77;22.30;;;;;;;2.95;95.11;99884.00;5102461;28;20031;-75
2020/12/07 01:10:30;;;;;;;40.10;21.30;;;;;;;2.96;95.31;99884.84;5111424;28;20781;-74
2020/12/07 01:12:55;;;;;;;40.72;23.05;;;;;;;3.04;95.31;99888.53;5106484;28;20027;-76
2020/12/07 01:15:20;;;;;;;36.65;19.98;;;;;;;3.06;95.27;99892.84;5094504;28;20035;-76
2020/12/07 01:17:45;;;;;;;37.13;20.77;;;;;;;3.08;94.92;99891.25;5092649;28;20024;-77
2020/12/07 01:20:11;;;;;;;37.17;20.83;;;;;;;3.08;95.25;99891.25;5104100;28;20031;-76
2020/12/07 01:22:36;;;;;;;36.47;20.50;;;;;;;3.10;94.98;99892.16;5093979;28;20274;-76
2020/12/07 01:25:02;;;;;;;42.10;23.00;;;;;;;3.09;95.05;99892.97;5091112;28;20285;-76
2020/12/07 01:27:27;;;;;;;;;;;;;;;3.11;95.12;99891.34;5097215;28;20401;-76
2020/12/07 01:29:53;;;;;;;44.07;21.67;;;;;;;3.16;95.06;99898.28;5100595;28;19915;-76
2020/12/07 01:32:18;;;;;;;40.57;22.57;;;;;;;3.21;95.06;99896.78;5094114;28;20063;-78
2020/12/07 01:34:43;;;;;;;35.17;20.43;;;;;;;3.20;94.78;99900.97;5106451;28;20039;-75
2020/12/07 01:37:08;;;;;;;41.15;20.17;;;;;;;3.20;94.90;99905.19;5103516;28;20453;-76
2020/12/07 01:39:34;;;;;;;38.30;21.25;;;;;;;3.20;94.68;99900.13;5107858;28;20541;-76
2020/12/07 01:41:59;;;;;;;43.47;22.47;;;;;;;3.24;95.09;99896.88;5101395;28;20035;-78
2020/12/07 01:44:24;;;;;;;34.80;20.50;;;;;;;3.22;94.54;99894.28;5103175;28;20262;-74
2020/12/07 01:46:50;;;;;;;38.33;21.17;;;;;;;3.27;94.79;99881.81;5093455;28;20438;-76
2020/12/07 01:49:15;;;;;;;38.28;22.25;;;;;;;3.30;94.93;99887.00;5095255;28;20127;-76
2020/12/07 01:51:41;;;;;;;36.10;21.13;;;;;;;3.34;94.88;99883.75;5094043;28;20016;-76
2020/12/07 01:54:06;;;;;;;38.30;22.13;;;;;;;3.31;94.77;99876.88;5100991;28;20031;-77
2020/12/07 01:56:31;;;;;;;37.17;21.45;;;;;;;3.34;94.62;99882.06;5102586;28;20418;-74
2020/12/07 01:58:58;;;;;;;34.00;20.77;;;;;;;3.35;94.93;99877.88;5101571;28;20028;-78
2020/12/07 02:01:24;;;;;;;37.53;20.20;;;;;;;3.34;94.63;99878.69;5101169;28;20020;-76
2020/12/07 02:03:49;;;;;;;38.90;21.13;;;;;;;3.33;94.65;99877.81;5104681;28;20027;-76
2020/12/07 02:06:15;;;;;;;39.50;22.25;;;;;;;3.36;94.70;99874.50;5101692;28;20076;-79
2020/12/07 02:08:40;;;;;;;42.77;22.47;;;;;;;3.42;94.89;99867.97;5103901;28;20023;-77
2020/12/07 02:11:05;;;;;;;38.50;20.52;;;;;;;3.39;94.93;99864.47;5101464;28;20288;-78
2020/12/07 02:13:31;;;;;;;36.33;19.83;;;;;;;3.45;95.04;99857.06;5101122;28;20059;-78
2020/12/07 02:15:56;;;;;;;40.53;20.73;;;;;;;3.46;94.97;99857.94;5101664;28;20016;-78
2020/12/07 02:18:22;;;;;;;36.13;20.52;;;;;;;3.44;95.10;99846.06;5101436;28;20385;-78
2020/12/07 02:20:48;;;;;;;34.92;20.90;;;;;;;3.47;95.04;99852.06;5103668;28;20499;-77
2020/12/07 02:23:14;;;;;;;37.30;22.43;;;;;;;3.46;95.13;99845.25;5101169;28;20031;-78
2020/12/07 02:25:39;;;;;;;36.58;20.95;;;;;;;3.52;95.14;99846.31;5101646;28;20034;-78
2020/12/07 02:28:05;;;;;;;36.28;21.17;;;;;;;3.53;95.05;99842.09;5101092;28;20481;-77
2020/12/07 02:30:30;;;;;;;32.50;18.90;;;;;;;3.57;95.39;99836.31;5101793;28;20015;-77
2020/12/07 02:32:55;;;;;;;37.05;19.83;;;;;;;3.59;95.36;99833.06;5100694;28;20028;-77
2020/12/07 02:35:21;;;;;;;33.90;19.17;;;;;;;3.73;94.96;99830.97;5100730;28;20024;-80
2020/12/07 02:37:47;;;;;;;36.27;20.33;;;;;;;3.95;94.38;99830.91;5100290;28;20301;-78
2020/12/07 02:40:14;;;;;;;39.00;20.77;;;;;;;4.00;94.40;99826.84;5101653;28;20059;-78
2020/12/07 02:42:39;;;;;;;;;;;;;;;4.06;94.40;99823.63;5101633;28;20556;-77
2020/12/07 02:45:07;;;;;;;40.07;21.67;;;;;;;4.07;94.53;99805.91;5102325;28;20006;-77
2020/12/07 02:47:33;;;;;;;48.23;24.93;;;;;;;4.22;94.46;99818.22;5099905;28;20039;-77
2020/12/07 02:49:58;;;;;;;42.85;23.27;;;;;;;4.28;94.54;99815.91;5100777;28;20031;-78
2020/12/07 02:52:25;;;;;;;45.28;24.15;;;;;;;4.33;94.27;99816.06;5104966;28;20396;-77
2020/12/07 02:54:55;;;;;;;47.50;23.97;;;;;;;4.36;94.25;99817.00;5100954;28;20024;-77
2020/12/07 02:57:21;;;;;;;54.33;25.43;;;;;;;4.37;94.57;99811.09;5101992;28;20028;-80
2020/12/07 02:59:47;;;;;;;;;;;;;;;4.43;94.44;99809.56;5101099;28;20035;-77
2020/12/07 03:02:12;;;;;;;40.70;22.40;;;;;;;4.40;94.61;99819.66;5102302;28;19935;-77
2020/12/07 03:04:37;;;;;;;46.17;23.17;;;;;;;4.39;94.29;99808.63;5099437;28;20036;-78
2020/12/07 03:07:02;;;;;;;39.53;22.30;;;;;;;4.43;94.40;99804.47;5102367;28;20031;-76
2020/12/07 03:09:28;;;;;;;44.97;21.48;;;;;;;4.41;94.38;99794.28;5102067;28;20028;-77
2020/12/07 03:11:53;;;;;;;43.67;22.57;;;;;;;4.38;94.57;99796.72;5102816;28;20058;-77
2020/12/07 03:14:18;;;;;;;37.13;20.57;;;;;;;4.41;94.27;99793.41;5097269;28;20019;-77
2020/12/07 03:16:43;;;;;;;34.00;19.00;;;;;;;4.36;94.72;99795.81;5101361;28;20265;-77
2020/12/07 03:19:11;;;;;;;39.87;20.13;;;;;;;4.41;94.51;99791.72;5101942;28;20020;-77
2020/12/07 03:21:37;;;;;;;38.80;18.63;;;;;;;4.41;94.25;99790.88;5102288;28;20123;-78
2020/12/07 03:24:05;;;;;;;37.10;17.48;;;;;;;4.37;94.62;99792.44;5101729;28;20135;-77
2020/12/07 03:26:30;;;;;;;32.07;15.47;;;;;;;4.35;94.65;99792.41;5100527;28;20039;-79
2020/12/07 03:28:56;;;;;;;27.63;16.00;;;;;;;4.44;94.25;99788.41;5100583;28;20017;-77
2020/12/07 03:31:21;;;;;;;28.42;16.42;;;;;;;4.41;94.28;99783.22;5102677;28;20553;-78
2020/12/07 03:33:46;;;;;;;32.47;15.57;;;;;;;4.44;94.46;99785.88;5101852;28;20102;-77
2020/12/07 03:36:11;;;;;;;31.20;16.67;;;;;;;4.38;94.36;99778.91;5101958;28;20378;-78
2020/12/07 03:38:37;;;;;;;30.00;16.03;;;;;;;4.46;94.50;99784.22;5100365;28;20292;-78
2020/12/07 03:41:02;;;;;;;29.80;16.10;;;;;;;4.39;94.33;99780.66;5100164;28;20077;-78
2020/12/07 03:43:27;;;;;;;29.27;15.23;;;;;;;4.40;94.37;99773.88;5101371;28;20050;-77
2020/12/07 03:45:52;;;;;;;30.97;16.17;;;;;;;4.37;94.67;99770.44;5099353;28;20077;-77
2020/12/07 03:48:18;;;;;;;31.13;16.13;;;;;;;4.37;94.42;99772.97;5100837;28;20035;-77
2020/12/07 03:50:43;;;;;;;37.17;16.67;;;;;;;4.26;94.57;99765.84;5097483;28;20828;-76
2020/12/07 03:53:08;;;;;;;34.10;17.10;;;;;;;4.17;95.08;99761.31;5098285;28;20032;-77
2020/12/07 03:55:33;;;;;;;36.07;17.33;;;;;;;4.17;95.11;99760.44;5101297;28;20016;-77
2020/12/07 03:57:59;;;;;;;31.83;16.90;;;;;;;4.20;95.16;99770.69;5105277;28;20526;-78
2020/12/07 04:00:24;;;;;;;29.55;16.45;;;;;;;4.22;95.35;99754.69;5105657;28;20289;-78
2020/12/07 04:02:50;;;;;;;26.53;15.13;;;;;;;4.18;95.30;99752.00;5104261;28;20057;-78
2020/12/07 04:05:26;;;;;;;29.38;15.90;;;;;;;4.21;95.29;99752.97;5105894;28;20016;-77
2020/12/07 04:07:51;;;;;;;30.17;17.25;;;;;;;4.11;95.29;99753.50;5105568;28;20051;-78
2020/12/07 04:10:17;;;;;;;32.97;17.07;;;;;;;4.07;95.45;99747.44;5104457;28;20520;-77
2020/12/07 04:12:42;;;;;;;28.63;15.13;;;;;;;4.06;95.30;99750.81;5103934;28;20278;-77
2020/12/07 04:15:07;;;;;;;26.63;15.63;;;;;;;4.12;95.56;99747.59;5103824;28;20443;-77
2020/12/07 04:17:32;;;;;;;31.17;16.20;;;;;;;4.11;95.63;99750.94;5105231;28;20032;-78
2020/12/07 04:19:57;;;;;;;31.20;16.93;;;;;;;4.10;95.75;99755.97;5108357;28;20803;-78
2020/12/07 04:22:23;;;;;;;32.87;17.97;;;;;;;4.07;96.01;99755.06;5106990;28;20031;-76
2020/12/07 04:24:48;;;;;;;38.87;20.27;;;;;;;4.04;95.72;99765.16;5103600;28;20031;-77
2020/12/07 04:27:13;;;;;;;37.23;21.20;;;;;;;4.07;95.95;99766.91;5115722;22;20341;-79
2020/12/07 04:29:39;;;;;;;49.53;21.13;;;;;;;4.09;96.10;99770.38;5061143;28;20028;-81
2020/12/07 04:32:04;;;;;;;36.50;20.63;;;;;;;4.09;96.03;99774.59;5097504;28;20031;-79
2020/12/07 04:34:29;;;;;;;34.17;18.73;;;;;;;4.06;96.22;99765.19;5098223;28;20020;-79
2020/12/07 04:36:55;;;;;;;37.87;19.93;;;;;;;4.03;96.27;99763.41;5081032;28;20281;-79
2020/12/07 04:39:21;;;;;;;43.33;19.97;;;;;;;3.97;96.22;99770.00;5097262;28;20020;-79
2020/12/07 04:41:47;;;;;;;41.47;21.42;;;;;;;3.92;96.27;99762.22;5076905;28;20032;-79
2020/12/07 04:44:12;;;;;;;41.20;20.35;;;;;;;3.92;96.15;99768.97;5063598;28;20053;-80
2020/12/07 04:46:38;;;;;;;40.00;19.67;;;;;;;3.91;96.13;99777.41;5076164;28;20028;-79
2020/12/07 04:49:03;;;;;;;46.45;21.50;;;;;;;4.21;96.25;99786.00;5058854;28;20028;-80
2020/12/07 04:51:31;;;;;;;35.70;19.98;;;;;;;4.43;95.91;99779.91;5094969;28;20035;-79
2020/12/07 04:53:58;;;;;;;24.90;15.43;;;;;;;4.45;95.21;99775.75;5077627;28;20027;-81
2020/12/07 04:56:25;;;;;;;19.87;10.67;;;;;;;4.43;94.67;99781.59;5094044;28;20016;-79
2020/12/07 04:58:50;;;;;;;;;;;;;;;4.54;94.39;99782.78;5095691;28;20028;-79
2020/12/07 05:01:15;;;;;;;19.80;11.20;;;;;;;4.54;94.03;99780.25;5072545;28;19916;-78
2020/12/07 05:03:40;;;;;;;24.55;12.23;;;;;;;4.54;93.94;99776.03;5084608;28;20069;-79
2020/12/07 05:06:06;;;;;;;25.40;13.57;;;;;;;4.56;93.77;99771.88;5075328;28;20028;-78
2020/12/07 05:08:32;;;;;;;23.33;13.07;;;;;;;4.58;94.02;99760.06;5088097;28;20321;-79
2020/12/07 05:11:00;;;;;;;;;;;;;;;4.58;94.27;99759.19;5095548;28;20040;-78
2020/12/07 05:13:36;;;;;;;20.80;12.47;;;;;;;4.57;94.34;99755.78;5085638;28;20333;-78
2020/12/07 05:16:02;;;;;;;17.40;10.93;;;;;;;4.55;94.53;99746.38;5072646;28;20031;-78
2020/12/07 05:18:31;;;;;;;23.23;14.38;;;;;;;4.50;94.52;99747.91;5069473;28;20158;-78
2020/12/07 05:20:57;;;;;;;27.17;16.30;;;;;;;4.50;94.66;99750.44;5057247;28;20512;-79
2020/12/07 05:23:23;;;;;;;28.87;15.97;;;;;;;4.45;95.07;99747.78;5074554;28;20037;-80
2020/12/07 05:25:48;;;;;;;31.00;16.27;;;;;;;4.39;95.35;99742.50;5073678;28;20445;-79
2020/12/07 05:28:21;;;;;;;26.33;15.77;;;;;;;4.36;95.47;99743.28;5066890;28;20440;-79
2020/12/07 05:30:49;;;;;;;33.30;16.53;;;;;;;4.31;95.58;99743.97;5091190;28;20035;-77
2020/12/07 05:33:16;;;;;;;28.93;16.00;;;;;;;4.33;96.06;99737.25;5076438;28;20378;-79
2020/12/07 05:35:45;;;;;;;31.73;16.83;;;;;;;4.31;95.76;99733.78;5059380;28;20024;-78
2020/12/07 05:38:10;;;;;;;29.47;15.47;;;;;;;4.32;96.05;99736.38;5078659;28;20071;-79
2020/12/07 05:40:36;;;;;;;26.48;13.90;;;;;;;4.30;96.09;99735.47;5068378;28;20443;-79
2020/12/07 05:43:01;;;;;;;31.20;14.98;;;;;;;4.27;96.09;99730.28;5094681;28;20103;-79
2020/12/07 05:45:27;;;;;;;28.13;13.88;;;;;;;4.31;96.10;99728.72;5057281;28;20028;-79
2020/12/07 05:47:53;;;;;;;24.25;12.90;;;;;;;4.34;96.21;99729.66;5094751;28;20456;-79
2020/12/07 05:50:20;;;;;;;23.33;12.38;;;;;;;4.34;96.09;99737.28;5094802;28;20073;-80
2020/12/07 05:52:52;;;;;;;23.53;12.00;;;;;;;4.33;96.12;99724.53;5076829;28;20107;-78
2020/12/07 05:55:19;;;;;;;25.37;12.13;;;;;;;4.32;96.20;99717.72;5076708;28;20502;-80
2020/12/07 05:58:02;;;;;;;23.73;12.03;;;;;;;4.36;95.99;99717.84;5058561;28;20017;-78
2020/12/07 06:00:30;;;;;;;27.80;12.83;;;;;;;4.46;95.72;99723.22;5074432;28;20620;-80
2020/12/07 06:02:55;;;;;;;19.47;11.70;;;;;;;4.43;95.81;99716.34;5075229;28;20533;-79
2020/12/07 06:05:22;;;;;;;26.05;11.27;;;;;;;4.46;95.45;99708.81;5094035;28;20089;-79
2020/12/07 06:08:04;;;;;;;33.70;12.33;;;;;;;4.37;95.51;99704.31;5073429;28;20025;-79
2020/12/07 06:10:40;;;;;;;20.73;10.33;;;;;;;4.36;95.45;99702.59;5082964;28;20106;-78
2020/12/07 06:13:12;;;;;;;18.48;10.25;;;;;;;4.47;95.28;99700.38;5080141;28;20284;-79
2020/12/07 06:15:43;;;;;;;18.70;10.17;;;;;;;4.46;95.00;99698.66;5099677;28;20024;-78
2020/12/07 06:18:21;;;;;;;17.37;9.33;;;;;;;4.38;95.02;99689.94;5085273;28;20388;-81
2020/12/07 06:20:46;;;;;;;17.53;8.77;;;;;;;4.41;95.06;99690.03;5080659;28;20046;-78
2020/12/07 06:23:16;;;;;;;13.60;8.70;;;;;;;4.31;94.98;99693.13;5064604;28;20028;-78
2020/12/07 06:25:44;;;;;;;18.93;9.67;;;;;;;4.23;94.92;99689.50;5061691;28;20017;-78
2020/12/07 06:28:10;;;;;;;20.80;11.00;;;;;;;4.36;95.43;99702.59;5062017;28;20024;-80
2020/12/07 06:30:37;;;;;;;19.90;10.03;;;;;;;4.31;95.26;99706.69;5063454;28;20070;-79
2020/12/07 06:33:09;;;;;;;24.20;11.97;;;;;;;4.22;95.10;99702.97;5068007;28;20034;-78
2020/12/07 06:35:42;;;;;;;23.63;12.30;;;;;;;4.14;95.31;99710.38;5064028;28;20078;-79
2020/12/07 06:38:08;;;;;;;29.70;13.47;;;;;;;4.11;95.54;99709.44;5062946;28;20020;-80
2020/12/07 06:40:36;;;;;;;27.02;15.48;;;;;;;4.16;95.73;99718.91;5081095;28;20059;-79
2020/12/07 06:43:26;;;;;;;32.57;15.97;;;;;;;4.17;95.89;99723.19;5079073;28;20024;-79
2020/12/07 06:45:51;;;;;;;32.83;17.37;;;;;;;4.15;95.64;99729.91;5073975;28;20504;-79
2020/12/07 06:48:20;;;;;;;33.70;19.10;;;;;;;4.13;95.65;99734.06;5100107;28;20020;-81
2020/12/07 06:50:46;;;;;;;37.47;19.70;;;;;;;4.14;95.49;99740.88;5080728;28;20024;-80
2020/12/07 06:55:57;;;;;;;38.40;19.80;;;;;;;4.11;95.65;99740.78;5086130;28;20032;-80
2020/12/07 06:58:34;;;;;;;40.60;20.85;;;;;;;4.06;95.75;99747.41;5083420;28;20047;-78
2020/12/07 07:01:15;;;;;;;46.30;19.77;;;;;;;4.09;95.94;99737.34;5093209;28;20028;-80
2020/12/07 07:03:52;;;;;;;40.47;19.47;;;;;;;4.06;96.03;99750.81;5080887;28;20501;-80
2020/12/07 07:06:21;;;;;;;;;;;;;;;4.09;96.10;99747.50;5096355;28;20024;-78
2020/12/07 07:08:47;;;;;;;34.13;17.47;;;;;;;4.21;95.85;99760.59;5078777;28;19942;-79
2020/12/07 07:11:13;;;;;;;30.47;16.30;;;;;;;4.37;95.18;99770.44;5097476;28;20035;-79
2020/12/07 07:13:38;;;;;;;33.20;17.20;;;;;;;4.38;95.23;99767.06;5095790;28;20071;-81
2020/12/07 07:16:05;;;;;;;29.83;15.33;;;;;;;4.42;94.93;99759.53;5067312;28;20028;-80
2020/12/07 07:18:31;;;;;;;29.57;16.20;;;;;;;4.37;94.94;99760.25;5079602;28;20270;-81
2020/12/07 07:21:00;;;;;;;29.50;15.43;;;;;;;4.34;94.59;99757.63;5085621;28;20039;-80
2020/12/07 07:23:26;;;;;;;33.47;16.17;;;;;;;4.29;95.05;99751.53;5063543;28;20039;-82
2020/12/07 07:25:58;;;;;;;30.25;15.32;;;;;;;4.26;95.23;99753.13;5073812;28;20020;-82
2020/12/07 07:28:24;;;;;;;32.07;16.03;;;;;;;4.27;95.28;99745.53;5071878;28;20026;-81
2020/12/07 07:30:50;;;;;;;28.57;14.53;;;;;;;4.21;95.60;99747.88;5079718;28;20028;-80
2020/12/07 07:33:15;;;;;;;27.03;14.60;;;;;;;4.24;95.70;99745.47;5097536;28;20023;-80
2020/12/07 07:35:40;;;;;;;32.67;17.03;;;;;;;4.22;95.72;99749.59;5102558;28;20028;-80
2020/12/07 07:38:06;;;;;;;30.03;15.30;;;;;;;4.23;95.81;99746.28;5091883;28;20346;-79
2020/12/07 07:40:31;;;;;;;29.40;15.00;;;;;;;4.28;95.70;99741.31;5064383;28;20371;-79
2020/12/07 07:43:00;;;;;;;27.42;15.52;;;;;;;4.23;95.97;99740.31;5063068;28;20397;-80
2020/12/07 07:45:32;;;;;;;29.00;14.47;;;;;;;4.20;95.91;99746.16;5076917;28;20127;-80
2020/12/07 07:48:22;;;;;;;27.17;15.33;;;;;;;4.21;95.97;99737.72;5079935;28;20059;-80
2020/12/07 08:08:20;;;;;;;26.07;14.07;;;;;;;4.26;96.02;99754.00;5087096;28;20508;-79
2020/12/07 08:15:47;;;;;;;24.47;15.57;;;;;;;4.31;95.91;99749.91;5089622;28;20027;-81
2020/12/07 08:18:09;;;;;;;31.80;16.03;;;;;;;4.27;95.60;99748.09;5074425;28;20557;-80
2020/12/07 08:20:37;;;;;;;29.67;15.93;;;;;;;4.21;95.66;99740.25;5083180;28;20107;-80
2020/12/07 08:23:07;;;;;;;27.07;15.80;;;;;;;4.22;95.73;99756.34;5081488;28;20020;-79
2020/12/07 08:25:40;;;;;;;27.23;15.50;;;;;;;4.22;95.52;99749.59;5077341;28;20092;-81
2020/12/07 08:28:25;;;;;;;26.17;14.00;;;;;;;4.24;95.83;99760.72;5063250;28;20016;-78
2020/12/07 08:31:06;;;;;;;26.07;14.63;;;;;;;4.22;95.59;99759.75;5067627;28;20383;-80
2020/12/07 08:33:33;;;;;;;24.70;14.17;;;;;;;4.30;95.56;99763.44;5068383;28;20032;-80
2020/12/07 08:36:00;;;;;;;26.73;15.80;;;;;;;4.27;95.75;99770.97;5067862;28;20437;-79
2020/12/07 08:38:38;;;;;;;25.33;15.10;;;;;;;4.40;95.88;99778.97;5084563;28;20013;-79
2020/12/07 08:41:09;;;;;;;26.83;14.20;;;;;;;4.39;95.72;99770.47;5079115;28;20027;-79
2020/12/07 08:43:35;;;;;;;25.67;14.43;;;;;;;4.38;95.89;99782.31;5075951;28;20763;-79
2020/12/07 08:46:02;;;;;;;25.40;14.27;;;;;;;4.34;95.74;99780.50;5081655;28;20031;-80
2020/12/07 08:48:27;;;;;;;;;;;;;;;4.49;95.83;99784.31;5066624;28;20019;-79
2020/12/07 08:50:53;;;;;;;19.07;11.97;;;;;;;4.49;95.86;99789.41;5056227;28;19920;-80
2020/12/07 08:53:19;;;;;;;20.47;11.73;;;;;;;4.52;95.75;99786.97;5076619;28;20058;-78
2020/12/07 08:55:44;;;;;;;17.08;10.65;;;;;;;4.58;95.39;99800.75;5078963;28;20032;-78
2020/12/07 08:58:09;;;;;;;17.77;11.17;;;;;;;4.59;95.56;99788.91;5070213;28;20031;-78
2020/12/07 09:00:34;;;;;;;17.17;9.43;;;;;;;4.56;95.36;99809.16;5054856;28;20371;-79
2020/12/07 09:02:59;;;;;;;17.53;9.73;;;;;;;4.54;95.44;99800.59;5062078;28;20032;-78
2020/12/07 09:05:25;;;;;;;17.47;9.70;;;;;;;4.58;95.13;99804.97;5073503;28;20274;-79
2020/12/07 09:07:50;;;;;;;17.30;9.40;;;;;;;4.74;95.15;99802.06;5074378;28;20390;-77
2020/12/07 09:10:15;;;;;;;15.53;8.90;;;;;;;4.71;94.71;99803.66;5080801;28;20039;-79
2020/12/07 09:12:41;;;;;;;15.67;9.00;;;;;;;4.66;94.48;99803.53;5063261;28;20283;-80
2020/12/07 09:15:06;;;;;;;17.58;9.55;;;;;;;4.69;94.82;99803.63;5058338;28;20122;-78
2020/12/07 09:17:31;;;;;;;15.03;9.43;;;;;;;4.68;94.39;99801.88;5068782;28;20035;-77
2020/12/07 09:19:56;;;;;;;18.13;12.20;;;;;;;4.72;94.43;99808.78;5079611;28;20278;-78
2020/12/07 09:22:22;;;;;;;22.70;14.80;;;;;;;4.69;94.33;99804.47;5079199;28;20052;-79
2020/12/07 09:24:47;;;;;;;32.00;18.63;;;;;;;4.60;94.18;99801.66;5078132;28;20746;-76
2020/12/07 09:27:12;;;;;;;35.88;23.15;;;;;;;4.65;93.95;99812.84;5078012;28;20082;-80
2020/12/07 09:29:38;;;;;;;34.83;23.43;;;;;;;4.62;94.02;99816.97;5087447;28;20036;-82
2020/12/07 09:32:03;;;;;;;42.20;26.30;;;;;;;4.59;94.19;99816.88;5090061;28;20081;-80
2020/12/07 09:34:28;;;;;;;41.93;27.53;;;;;;;4.60;94.33;99814.38;5065379;28;20271;-78
2020/12/07 09:36:53;;;;;;;55.83;32.03;;;;;;;4.56;94.33;99814.25;5058620;28;20349;-82
2020/12/07 09:39:19;;;;;;;57.30;33.67;;;;;;;4.54;94.29;99815.84;5085090;28;20028;-81
2020/12/07 09:41:44;;;;;;;58.67;34.33;;;;;;;4.53;94.12;99817.53;5076488;28;20485;-79
2020/12/07 09:44:09;;;;;;;59.43;34.23;;;;;;;4.55;94.10;99807.41;5068949;28;20029;-80
2020/12/07 09:46:34;;;;;;;52.80;33.03;;;;;;;4.59;93.91;99809.25;5071635;28;20281;-80
2020/12/07 09:49:00;;;;;;;62.83;35.33;;;;;;;4.54;93.95;99798.03;5096074;28;20282;-81
2020/12/07 09:51:25;;;;;;;60.33;35.80;;;;;;;4.54;94.11;99798.03;5072832;28;20774;-82
2020/12/07 09:53:50;;;;;;;55.83;33.43;;;;;;;4.57;93.82;99798.16;5094721;28;20275;-80
2020/12/07 09:56:16;;;;;;;62.37;35.07;;;;;;;4.58;94.39;99798.22;5087558;28;20081;-81
2020/12/07 09:58:41;;;;;;;63.77;34.83;;;;;;;4.59;94.33;99794.00;5088332;28;20270;-79
2020/12/07 10:01:06;;;;;;;57.53;34.40;;;;;;;4.61;94.01;99799.97;5068340;28;20266;-79
2020/12/07 10:03:31;;;;;;;56.00;32.90;;;;;;;4.58;93.80;99797.34;5070004;28;20354;-81
2020/12/07 10:05:57;;;;;;;58.43;33.27;;;;;;;4.57;94.22;99808.34;5083213;28;20031;-79
2020/12/07 10:08:22;;;;;;;55.92;32.60;;;;;;;4.63;94.09;99803.44;5069851;28;20025;-78
2020/12/07 10:10:47;;;;;;;56.10;32.17;;;;;;;4.62;93.84;99805.13;5083513;28;20397;-81
2020/12/07 10:13:13;;;;;;;59.70;31.83;;;;;;;4.60;93.72;99800.81;5063371;28;20107;-81
2020/12/07 10:15:38;;;;;;;61.80;35.38;;;;;;;4.58;94.07;99802.44;5089432;28;20267;-79
2020/12/07 10:18:03;;;;;;;63.43;34.07;;;;;;;4.62;94.13;99806.78;5085739;28;20102;-80
2020/12/07 10:20:29;;;;;;;61.13;34.05;;;;;;;4.62;94.21;99799.16;5090760;28;20300;-79
2020/12/07 10:22:54;;;;;;;56.13;31.42;;;;;;;4.61;93.72;99794.91;5071240;28;20044;-80
2020/12/07 10:25:19;;;;;;;61.50;33.50;;;;;;;4.70;93.82;99787.53;5064578;28;20040;-82
2020/12/07 10:27:45;;;;;;;66.20;34.93;;;;;;;4.68;93.87;99792.56;5092697;22;20154;-77
2020/12/07 10:30:10;;;;;;;61.27;32.97;;;;;;;4.76;93.54;99795.34;5081464;28;20339;-76
2020/12/07 10:32:35;;;;;;;54.67;32.80;;;;;;;4.74;93.22;99799.53;5079225;28;20024;-78
2020/12/07 10:35:00;;;;;;;56.00;34.00;;;;;;;4.72;93.08;99800.31;5085105;28;20020;-78
2020/12/07 10:37:26;;;;;;;59.80;35.37;;;;;;;4.78;93.21;99801.34;5069327;28;20024;-78
2020/12/07 10:39:51;;;;;;;56.80;33.27;;;;;;;4.77;93.19;99796.22;5058370;28;20025;-78
2020/12/07 10:42:16;;;;;;;58.57;34.03;;;;;;;4.82;93.46;99795.53;5061766;28;20772;-77
2020/12/07 10:44:41;;;;;;;59.60;35.90;;;;;;;4.81;93.20;99793.78;5066841;28;20024;-77
2020/12/07 10:47:07;;;;;;;58.92;35.45;;;;;;;4.84;92.74;99801.53;5061450;28;20024;-77
2020/12/07 10:49:32;;;;;;;64.87;36.27;;;;;;;4.81;92.81;99798.88;5067633;28;20035;-78
2020/12/07 10:51:59;;;;;;;63.25;35.40;;;;;;;4.76;92.87;99802.13;5064401;28;20545;-78
2020/12/07 10:54:24;;;;;;;69.93;37.33;;;;;;;4.79;93.24;99799.66;5055823;28;20045;-76
2020/12/07 10:56:49;;;;;;;57.13;33.93;;;;;;;4.67;92.89;99802.72;5059686;28;20059;-77
2020/12/07 10:59:14;;;;;;;59.57;33.27;;;;;;;4.61;92.78;99805.06;5060558;28;20033;-77
2020/12/07 11:01:40;;;;;;;67.10;35.23;;;;;;;4.57;93.05;99803.25;5062334;28;20720;-76
2020/12/07 11:04:05;;;;;;;68.53;35.72;;;;;;;4.62;93.28;99801.72;5057011;28;20029;-77
2020/12/07 11:06:34;;;;;;;65.60;35.92;;;;;;;4.62;93.57;99806.78;5060228;28;20024;-75
2020/12/07 11:09:04;;;;;;;68.20;34.73;;;;;;;4.68;93.26;99807.84;5058827;28;20037;-77
2020/12/07 11:11:30;;;;;;;70.30;35.33;;;;;;;4.63;93.34;99809.38;5060788;28;20048;-76
2020/12/07 11:13:55;;;;;;;61.05;32.75;;;;;;;4.68;93.23;99805.28;5064433;28;20055;-78
2020/12/07 11:16:24;;;;;;;62.83;32.70;;;;;;;4.64;93.29;99806.03;5062613;28;20036;-80
2020/12/07 11:18:49;;;;;;;60.77;33.57;;;;;;;4.63;93.54;99803.44;5059044;28;20298;-78
2020/12/07 11:21:17;;;;;;;65.63;33.23;;;;;;;4.64;93.26;99807.72;5058620;28;20036;-78
2020/12/07 11:23:44;;;;;;;68.57;34.40;;;;;;;4.64;93.45;99816.19;5059788;28;20289;-78
2020/12/07 11:26:11;;;;;;;65.93;35.40;;;;;;;4.73;93.60;99809.66;5056881;28;20025;-76
2020/12/07 11:28:38;;;;;;;63.03;34.80;;;;;;;4.68;93.39;99802.75;5058813;28;20025;-77
2020/12/07 11:31:03;;;;;;;71.17;35.60;;;;;;;4.78;93.32;99814.06;5059168;28;20032;-76
2020/12/07 11:33:29;;;;;;;77.80;37.97;;;;;;;4.78;93.87;99810.66;5057879;28;20047;-77
2020/12/07 11:35:55;;;;;;;;;;;;;;;4.84;93.04;99811.69;5056480;28;20307;-77
2020/12/07 11:38:23;;;;;;;65.60;34.77;;;;;;;4.83;93.25;99817.59;5058712;28;19952;-77
2020/12/07 11:41:13;;;;;;;74.13;38.47;;;;;;;4.88;93.13;99816.09;5059040;28;20483;-77
2020/12/07 11:43:50;;;;;;;76.23;39.50;;;;;;;4.76;93.25;99810.59;5059382;28;20043;-76
2020/12/07 11:49:04;;;;;;;72.93;37.47;;;;;;;4.75;93.30;99806.34;5063059;28;20082;-77
2020/12/07 11:51:30;;;;;;;65.88;35.80;;;;;;;4.64;92.74;99811.13;5050315;28;20414;-77
2020/12/07 11:53:55;;;;;;;69.60;36.83;;;;;;;4.71;92.90;99804.53;5055483;28;20082;-77